Latest Coastal Weather Observations for Melbourne (Olympic Park)

IDV60701

Issued at 3:31 pm EST Thursday 1 September 2016 (issued every 10 minutes, with the page automatically refreshed every 10 minutes)

About coastal observations | Map of coastal stations | Coastal observations for VIC | Marine services | Other Formats
Station Details ID: 086338 Name: MELBOURNE (OLYMPIC PARK) Lat: -37.83 Lon: 144.98 Height: 7.53 m
Data from the previous 72 hours. | See also: Recent months at Melbourne (Olympic Park)
Date/Time
EST
Temp
°C
Wind Pressure Rain since
9am
mm
Weather Cloud Vis
km
Sea
Height
m
Swell
Dir  Spd
kts
Gust
kts
hPa Trend Height
m
Period
s
Dir
01/03:30pm 13.6 SSW 2 6 1015.2 - 0.0 - - 54 - - - -
01/03:00pm 13.9 SSW 5 8 1015.5 - 0.0 Rain - - - - - -
01/02:30pm 14.2 SSW 5 8 1015.6 - 0.0 - - - - - - -
01/02:00pm 14.1 S 5 8 1015.8 - 0.0 - - - - - - -
01/01:30pm 13.8 SSW 7 10 1016.1 - 0.0 - - - - - - -
01/01:00pm 14.1 SSW 6 9 1016.5 - 0.0 - - - - - - -
01/12:30pm 14.1 SSW 6 10 1017.0 - 0.0 - - - - - - -
01/12:00pm 15.2 SSE 4 6 1017.3 - 0.0 - - - - - - -
01/11:30am 14.5 SSW 3 5 1017.5 - 0.0 - - - - - - -
01/11:00am 14.7 SSE 1 5 1017.8 - 0.0 - - - - - - -
01/10:30am 13.5 SSW 3 5 1018.1 - 0.0 - - - - - - -
01/10:00am 13.6 WNW 4 7 1018.4 - 0.0 - - - - - - -
01/09:30am 13.6 WNW 4 6 1018.5 - 0.0 - - - - - - -
01/09:00am 13.4 W 3 6 1018.5 - 0.0 - - - - - - -
01/08:30am 13.4 WSW 2 5 1018.5 - 0.0 - - - - - - -
01/08:00am 13.0 WSW 1 5 1018.4 - 0.0 - - - - - - -
01/07:30am 12.7 WSW 3 5 1018.3 - 0.0 - - - - - - -
01/07:00am 12.4 CALM 0 0 1018.2 - 0.0 - - - - - - -
01/06:30am 12.6 SW 1 5 1017.9 - 0.0 - - - - - - -
01/06:00am 12.7 W 2 6 1017.7 - 0.0 - - - - - - -
01/05:30am 12.2 CALM 0 0 1017.5 - 0.0 - - - - - - -
01/05:00am 11.7 CALM 0 3 1017.3 - 0.0 - - - - - - -
01/04:30am 12.0 CALM 0 0 1017.2 - 0.0 - - - - - - -
01/04:00am 13.0 W 1 4 1017.1 - 0.0 - - - - - - -
01/03:30am 13.3 SW 2 5 1017.0 - 0.0 - - - - - - -
01/03:00am 13.4 W 2 6 1017.1 - 0.0 - - - - - - -
01/02:30am 13.5 CALM 0 3 1017.2 - 0.0 - - - - - - -
01/02:00am 13.9 W 5 8 1017.4 - 0.0 - - - - - - -
01/01:30am 13.8 SW 1 3 1017.5 - 0.0 - - - - - - -
01/01:00am 13.9 SW 3 5 1017.4 - 0.0 - - - - - - -
01/12:30am 13.9 W 1 4 1017.2 - 0.0 - - - - - - -
01/12:00am 13.7 WNW 1 4 1017.0 - 0.0 - - - - - - -
 
Date/Time
EST
Temp
°C
Wind Pressure Rain since
9am
mm
Weather Cloud Vis
km
Sea
Height
m
Swell
Dir  Spd
kts
Gust
kts
hPa Trend Height
m
Period
s
Dir
31/11:30pm 13.5 SSW 3 6 1017.0 - 0.0 - - - - - - -
31/11:00pm 13.7 SSW 4 7 1016.8 - 0.0 - - - - - - -
31/10:30pm 14.4 SSW 4 8 1016.6 - 0.0 - - - - - - -
31/10:00pm 15.6 WNW 3 6 1016.6 - 0.0 - - - - - - -
31/09:30pm 15.4 CALM 0 2 1016.4 - 0.0 - - - - - - -
31/09:00pm 15.7 W 3 5 1016.3 - 0.0 - - - - - - -
31/08:30pm 15.8 WSW 2 5 1016.0 - 0.0 - - - - - - -
31/08:00pm 16.0 WSW 3 6 1015.8 - 0.0 - - - - - - -
31/07:30pm 16.2 SW 3 5 1015.4 - 0.0 - - - - - - -
31/07:00pm 16.7 W 3 7 1014.9 - 0.0 - - - - - - -
31/06:30pm 16.8 WNW 4 7 1014.6 - 0.0 - - - - - - -
31/06:00pm 16.6 WNW 4 7 1014.3 - 0.0 - - - - - - -
31/05:30pm 17.3 WNW 5 10 1013.9 - 0.0 - - - - - - -
31/05:00pm 17.4 W 6 11 1013.7 - 0.0 - - - - - - -
31/04:30pm 17.2 SW 5 9 1013.3 - 0.0 - - - - - - -
31/04:00pm 16.6 S 6 11 1013.0 - 0.0 - - - - - - -
31/03:30pm 17.3 S 5 12 1012.8 - 0.0 - - - - - - -
31/03:00pm 18.9 W 5 10 1012.6 - 0.0 - - - - - - -
31/02:30pm 18.7 W 8 14 1012.4 - 0.0 - - - - - - -
31/02:00pm 18.8 WSW 6 12 1012.2 - 0.0 - - - - - - -
31/01:30pm 18.1 S 6 10 1012.3 - 0.0 - - - - - - -
31/01:00pm 19.5 W 5 8 1012.3 - 0.0 - - - - - - -
31/12:30pm 18.2 WNW 6 11 1012.7 - 0.0 - - - - - - -
31/12:00pm 18.8 WNW 6 12 1012.9 - 0.0 - - - - - - -
31/11:30am 17.9 NW 7 13 1013.2 - 0.0 - - - - - - -
31/11:00am 17.7 NNW 7 14 1013.4 - 0.0 - - - - - - -
31/10:30am 17.5 NW 5 11 1013.5 - 0.0 - - - - - - -
31/10:00am 17.4 WNW 5 8 1013.6 - 0.0 - - - - - - -
31/09:30am 17.1 NNW 7 11 1013.6 - 0.0 - - - - - - -
31/09:00am 16.3 NNW 6 9 1013.6 - 0.8 - - - - - - -
31/08:30am 15.1 N 7 9 1013.3 - 0.8 - - - - - - -
31/08:00am 14.4 NNW 6 8 1012.9 - 0.8 - - - - - - -
31/07:30am 13.8 N 5 8 1012.7 - 0.8 - - - - - - -
31/07:00am 13.5 N 4 5 1012.5 - 0.8 - - - - - - -
31/06:30am 13.8 NNE 5 6 1012.1 - 0.8 - - - - - - -
31/06:00am 13.3 N 4 5 1012.0 - 0.8 - - - - - - -
31/05:30am 13.1 NNW 2 4 1011.7 - 0.8 - - - - - - -
31/05:00am 13.9 NNE 4 5 1011.7 - 0.8 - - - - - - -
31/04:30am 14.0 N 5 7 1011.8 - 0.6 - - - - - - -
31/04:00am 14.0 N 5 8 1011.8 - 0.6 - - - - - - -
31/03:30am 13.7 N 6 9 1011.7 - 0.6 - - - - - - -
31/03:00am 13.8 N 6 8 1011.8 - 0.6 - - - - - - -
31/02:30am 14.0 N 6 11 1012.2 - 0.6 - - - - - - -
31/02:00am 14.2 N 9 14 1012.5 - 0.6 - - - - - - -
31/01:30am 14.4 N 9 14 1012.8 - 0.6 - - - - - - -
31/01:00am 14.5 N 9 18 1013.0 - 0.6 - - - - - - -
31/12:30am 14.6 N 11 17 1013.0 - 0.6 - - - - - - -
31/12:00am 14.6 N 11 22 1013.1 - 0.6 Rain - - - - - -
 
Date/Time
EST
Temp
°C
Wind Pressure Rain since
9am
mm
Weather Cloud Vis
km
Sea
Height
m
Swell
Dir  Spd
kts
Gust
kts
hPa Trend Height
m
Period
s
Dir
30/11:30pm 14.7 N 11 18 1013.4 - 0.6 - - - - - - -
30/11:00pm 15.0 N 9 16 1013.7 - 0.6 - - - - - - -
30/10:30pm 15.0 N 7 12 1013.8 - 0.6 - - - - - - -
30/10:00pm 15.1 N 9 14 1013.8 - 0.6 - - - - - - -
30/09:30pm 15.6 N 10 17 1014.0 - 0.4 - - - - - - -
30/09:00pm 15.7 N 12 18 1014.0 - 0.4 Rain - - - - - -
30/08:30pm 16.0 N 9 15 1014.0 - 0.4 - - - - - - -
30/08:00pm 16.1 NNE 7 14 1013.9 - 0.4 - - - - - - -
30/07:30pm 16.1 N 9 14 1013.7 - 0.4 - - - - - - -
30/07:00pm 15.9 NNE 9 15 1013.9 - 0.4 - - - - - - -
30/06:30pm 16.0 N 8 13 1014.2 - 0.4 - - - - - - -
30/06:00pm 16.1 N 8 13 1014.0 - 0.4 - - - - - - -
30/05:30pm 16.3 NNE 10 18 1014.0 - 0.4 - - - - - - -
30/05:00pm 16.4 N 10 19 1014.5 - 0.4 - - - - - - -
30/04:30pm 16.4 N 11 19 1014.8 - 0.4 - - - - - - -
30/04:00pm 16.3 N 12 21 1014.7 - 0.4 - - - - - - -
30/03:33pm 16.6 N 15 27 1015.9 - 0.4 - - 10 - - - -
30/03:32pm 16.7 N 15 27 1015.0 - 0.4 - - - - - - -
30/03:30pm 16.6 N 14 27 1015.0 - 0.4 - - - - - - -
30/03:00pm 16.7 NNE 10 19 1015.2 - 0.4 - - - - - - -
30/02:30pm 16.2 NNE 9 15 1015.7 - 0.4 - - - - - - -
30/02:00pm 15.9 NNE 9 15 1016.2 - 0.4 - - - - - - -
30/01:30pm 16.2 NNE 10 16 1016.7 - 0.4 - - - - - - -
30/01:00pm 15.9 NNE 8 14 1016.7 - 0.4 - - - - - - -
30/12:30pm 15.7 NNE 10 16 1017.3 - 0.4 - - - - - - -
30/12:00pm 14.6 NNE 10 18 1018.4 - 0.2 Rain - - - - - -
30/11:30am 14.5 N 9 18 1019.3 - 0.0 - - - - - - -
30/11:00am 14.7 N 10 15 1019.7 - 0.0 - - - - - - -
30/10:30am 15.4 NNE 10 19 1019.8 - 0.0 - - - - - - -
30/10:00am 15.6 NNE 8 14 1020.1 - 0.0 - - - - - - -
30/09:30am 15.3 NNE 8 12 1019.8 - 0.0 - - - - - - -
30/09:00am 14.8 NNE 5 8 1020.0 - 0.0 - - - - - - -
30/08:30am 14.5 NNE 3 7 1020.2 - 0.0 - - - - - - -
30/08:00am 14.1 NNE 5 8 1020.4 - 0.0 - - - - - - -
30/07:30am 13.8 NNE 6 9 1020.3 - 0.0 - - - - - - -
30/07:00am 13.3 N 4 7 1020.9 - 0.0 - - - - - - -
30/06:30am 12.8 NNE 3 4 1020.6 - 0.0 - - - - - - -
30/06:00am 12.2 N 3 5 1020.9 - 0.0 - - - - - - -
30/05:30am 10.4 CALM 0 0 1020.2 - 0.0 - - - - - - -
30/05:00am 10.5 CALM 0 0 1020.4 - 0.0 - - - - - - -
30/04:30am 10.3 CALM 0 0 1020.2 - 0.0 - - - - - - -
30/04:00am 10.4 CALM 0 0 1020.2 - 0.0 - - - - - - -
30/03:30am 10.9 CALM 0 0 1020.6 - 0.0 - - - - - - -
30/03:00am 11.3 NNE 4 6 1020.9 - 0.0 - - - - - - -
30/02:30am 11.3 NNE 5 7 1021.2 - 0.0 - - - - - - -
30/02:00am 11.4 NNE 4 5 1021.3 - 0.0 - - - - - - -
30/01:30am 11.4 N 3 4 1021.6 - 0.0 - - - - - - -
30/01:00am 12.0 NE 4 6 1021.6 - 0.0 - - - - - - -
30/12:30am 11.6 N 3 5 1021.9 - 0.0 - - - - - - -
30/12:00am 11.5 NNE 2 4 1022.0 - 0.0 - - - - - - -
 
Date/Time
EST
Temp
°C
Wind Pressure Rain since
9am
mm
Weather Cloud Vis
km
Sea
Height
m
Swell
Dir  Spd
kts
Gust
kts
hPa Trend Height
m
Period
s
Dir
29/11:30pm 12.1 NNE 2 4 1022.5 - 0.0 - - - - - - -
29/11:00pm 11.8 CALM 0 3 1022.7 - 0.0 - - - - - - -
29/10:30pm 13.2 NNE 4 5 1022.8 - 0.0 - - - - - - -
29/10:00pm 12.2 NNE 1 4 1022.7 - 0.0 - - - - - - -
29/09:30pm 13.7 N 2 4 1022.6 - 0.0 - - - - - - -
29/09:00pm 14.2 NNE 4 6 1022.7 - 0.0 - - - - - - -
29/08:30pm 14.6 NE 1 4 1022.5 - 0.0 - - - - - - -
29/08:00pm 14.9 E 1 4 1022.6 - 0.0 - - - - - - -
29/07:30pm 15.5 NNE 4 6 1022.6 - 0.0 - - - - - - -
29/07:00pm 15.8 NNE 5 8 1022.3 - 0.0 - - - - - - -
29/06:30pm 16.3 NNE 6 9 1021.9 - 0.0 - - - - - - -
29/06:00pm 17.0 NNE 6 10 1021.8 - 0.0 - - - - - - -
29/05:30pm 17.6 NNE 7 11 1021.4 - 0.0 - - - - - - -
29/05:00pm 18.2 N 10 15 1021.6 - 0.0 - - - - - - -
29/04:30pm 18.5 N 11 20 1021.8 - 0.0 - - - - - - -
29/04:00pm 19.0 N 11 19 1021.7 - 0.0 - - - - - - -

Other Formats:

Comma delimited format used in spreadsheet applications
http://www.bom.gov.au/fwo/IDV60701/IDV60701.95936.axf

JavaScript Object Notation format (JSON) in row-major order
http://www.bom.gov.au/fwo/IDV60701/IDV60701.95936.json